createdAt,value
2022-11-24T00:01:09.223Z,96397.41
2022-11-24T00:04:00.955Z,96392.59
2022-11-24T00:06:46.489Z,96403.41
2022-11-24T00:09:32.295Z,96405.59
2022-11-24T00:12:17.773Z,96404.19
2022-11-24T00:15:06.529Z,96397.34
2022-11-24T00:17:52.295Z,96400.16
2022-11-24T00:20:37.791Z,96401.56
2022-11-24T00:23:23.151Z,96401.75
2022-11-24T00:26:10.139Z,96399.16
2022-11-24T00:28:57.745Z,96401.75
2022-11-24T00:31:43.775Z,96402.34
2022-11-24T00:34:29.616Z,96410.19
2022-11-24T00:37:15.078Z,96411.00
2022-11-24T00:40:00.887Z,96412.19
2022-11-24T00:42:46.354Z,96414.19
2022-11-24T00:45:31.878Z,96408.13
2022-11-24T00:48:17.501Z,96417.78
2022-11-24T00:51:06.124Z,96414.97
2022-11-24T00:53:53.251Z,96419.22
2022-11-24T00:56:38.670Z,96423.25
2022-11-24T00:59:24.134Z,96428.47
2022-11-24T01:02:09.982Z,96432.91
2022-11-24T01:04:55.487Z,96425.84
2022-11-24T01:07:40.870Z,96429.28
2022-11-24T01:10:26.253Z,96422.44
2022-11-24T01:13:13.365Z,96432.91
2022-11-24T01:15:59.002Z,96430.47
2022-11-24T01:18:45.409Z,96445.13
2022-11-24T01:21:31.071Z,96446.31
2022-11-24T01:24:16.926Z,96446.94
2022-11-24T01:27:02.338Z,96449.75
2022-11-24T01:29:48.087Z,96456.75
2022-11-24T01:32:34.358Z,96455.97
2022-11-24T01:35:19.679Z,96452.38
2022-11-24T01:38:05.365Z,96463.41
2022-11-24T01:40:59.793Z,96461.81
2022-11-24T01:43:46.133Z,96459.38
2022-11-24T01:46:47.499Z,96456.97
2022-11-24T01:49:44.858Z,96464.59
2022-11-24T01:52:36.861Z,96457.59
2022-11-24T01:55:28.759Z,96469.66
2022-11-24T01:58:26.615Z,96467.63
2022-11-24T02:01:12.847Z,96470.88
2022-11-24T02:03:59.312Z,96477.72
2022-11-24T02:06:46.393Z,96483.53
2022-11-24T02:09:40.537Z,96485.16
2022-11-24T02:12:27.495Z,96486.78
2022-11-24T02:15:17.804Z,96485.16
2022-11-24T02:18:03.422Z,96490.38
2022-11-24T02:20:48.889Z,96487.75
2022-11-24T02:23:46.891Z,96487.16
2022-11-24T02:26:41.972Z,96491.56
2022-11-24T02:29:27.457Z,96494.38
2022-11-24T02:32:12.995Z,96487.94
2022-11-24T02:35:07.729Z,96490.72
2022-11-24T02:37:53.495Z,96497.75
2022-11-24T02:40:41.567Z,96497.75
2022-11-24T02:43:30.918Z,96501.16
2022-11-24T02:46:16.630Z,96498.56
2022-11-24T02:49:02.195Z,96498.38
2022-11-24T02:51:47.651Z,96499.97
2022-11-24T02:54:33.559Z,96506.81
2022-11-24T02:57:19.339Z,96510.41
2022-11-24T03:00:05.391Z,96509.22
2022-11-24T03:02:51.116Z,96504.81
2022-11-24T03:05:36.691Z,96512.47
2022-11-24T03:08:22.234Z,96510.47
2022-11-24T03:11:07.564Z,96513.72
2022-11-24T03:13:53.154Z,96518.94
2022-11-24T03:16:38.518Z,96522.16
2022-11-24T03:19:24.316Z,96526.19
2022-11-24T03:22:09.687Z,96522.38
2022-11-24T03:24:55.099Z,96520.59
2022-11-24T03:27:40.572Z,96522.81
2022-11-24T03:30:26.489Z,96525.06
2022-11-24T03:33:12.036Z,96529.09
2022-11-24T03:36:00.579Z,96528.88
2022-11-24T03:38:46.241Z,96533.75
2022-11-24T03:41:31.489Z,96536.94
2022-11-24T03:44:17.540Z,96541.00
2022-11-24T03:47:03.237Z,96539.19
2022-11-24T03:49:48.733Z,96540.00
2022-11-24T03:52:34.155Z,96544.84
2022-11-24T03:55:19.658Z,96552.50
2022-11-24T03:58:05.306Z,96551.69
2022-11-24T04:00:52.783Z,96548.88
2022-11-24T04:03:38.157Z,96546.88
2022-11-24T04:06:23.797Z,96546.69
2022-11-24T04:09:09.987Z,96546.69
2022-11-24T04:12:14.384Z,96549.09
2022-11-24T04:15:00.285Z,96553.34
2022-11-24T04:17:46.796Z,96545.13
2022-11-24T04:20:33.212Z,96554.97
2022-11-24T04:23:18.944Z,96557.03
2022-11-24T04:26:04.239Z,96564.09
2022-11-24T04:28:49.722Z,96562.31
2022-11-24T04:31:35.087Z,96568.81
2022-11-24T04:34:20.562Z,96561.34
2022-11-24T04:37:06.005Z,96565.00
2022-11-24T04:39:51.753Z,96574.91
2022-11-24T04:42:37.578Z,96575.59
2022-11-24T04:45:24.100Z,96581.66
2022-11-24T04:48:09.602Z,96589.59
2022-11-24T04:50:55.213Z,96592.44
2022-11-24T04:53:41.391Z,96596.09
2022-11-24T04:56:27.320Z,96592.47
2022-11-24T04:59:15.720Z,96593.50
2022-11-24T05:02:01.433Z,96599.94
2022-11-24T05:04:47.138Z,96604.56
2022-11-24T05:07:32.938Z,96604.97
2022-11-24T05:10:36.442Z,96611.63
2022-11-24T05:13:22.244Z,96614.03
2022-11-24T05:16:08.096Z,96614.22
2022-11-24T05:18:53.758Z,96619.69
2022-11-24T05:21:39.444Z,96623.06
2022-11-24T05:24:24.940Z,96619.66
2022-11-24T05:27:11.442Z,96631.13
2022-11-24T05:29:56.692Z,96637.16
2022-11-24T05:32:42.810Z,96632.94
2022-11-24T05:35:28.274Z,96648.03
2022-11-24T05:38:13.740Z,96644.78
2022-11-24T05:41:06.201Z,96642.34
2022-11-24T05:43:52.010Z,96645.97
2022-11-24T05:46:37.517Z,96647.78
2022-11-24T05:49:23.069Z,96648.78
2022-11-24T05:52:09.179Z,96649.16
2022-11-24T05:54:54.965Z,96655.59
2022-11-24T05:57:41.172Z,96658.84
2022-11-24T06:00:27.390Z,96660.03
2022-11-24T06:03:12.837Z,96662.03
2022-11-24T06:05:58.612Z,96665.25
2022-11-24T06:08:43.907Z,96673.53
2022-11-24T06:11:29.629Z,96676.56
2022-11-24T06:14:15.494Z,96685.84
2022-11-24T06:17:00.982Z,96689.88
2022-11-24T06:19:50.072Z,96691.88
2022-11-24T06:22:36.361Z,96684.56
2022-11-24T06:25:21.792Z,96691.22
2022-11-24T06:28:07.835Z,96701.53
2022-11-24T06:30:53.901Z,96704.75
2022-11-24T06:33:39.452Z,96702.50
2022-11-24T06:36:25.636Z,96714.41
2022-11-24T06:39:11.372Z,96707.53
2022-11-24T06:41:56.973Z,96710.75
2022-11-24T06:44:42.517Z,96716.41
2022-11-24T06:47:28.092Z,96719.41
2022-11-24T06:50:13.822Z,96718.97
2022-11-24T06:52:58.967Z,96719.59
2022-11-24T06:55:45.527Z,96706.00
2022-11-24T06:58:30.969Z,96715.28
2022-11-24T07:01:27.689Z,96706.84
2022-11-24T07:04:13.530Z,96719.59
2022-11-24T07:06:58.959Z,96720.22
2022-11-24T07:09:44.517Z,96725.69
2022-11-24T07:12:34.258Z,96729.56
2022-11-24T07:15:19.790Z,96741.88
2022-11-24T07:18:05.324Z,96742.88
2022-11-24T07:20:50.667Z,96745.50
2022-11-24T07:23:36.560Z,96745.09
2022-11-24T07:26:23.452Z,96748.34
2022-11-24T07:29:08.677Z,96751.94
2022-11-24T07:31:54.264Z,96744.44
2022-11-24T07:34:39.664Z,96742.19
2022-11-24T07:37:30.873Z,96747.22
2022-11-24T07:40:17.159Z,96746.75
2022-11-24T07:43:02.259Z,96749.72
2022-11-24T07:45:53.007Z,96755.72
2022-11-24T07:48:38.726Z,96750.22
2022-11-24T07:51:24.291Z,96750.97
2022-11-24T07:54:09.780Z,96757.44
2022-11-24T07:56:55.874Z,96761.59
2022-11-24T07:59:41.567Z,96766.84
2022-11-24T08:02:27.153Z,96771.63
2022-11-24T08:05:12.314Z,96779.25
2022-11-24T08:08:00.091Z,96770.28
2022-11-24T08:10:45.526Z,96769.63
2022-11-24T08:13:30.950Z,96770.00
2022-11-24T08:16:18.291Z,96773.84
2022-11-24T08:19:03.827Z,96780.88
2022-11-24T08:21:49.310Z,96775.75
2022-11-24T08:24:35.169Z,96780.16
2022-11-24T08:27:21.071Z,96777.69
2022-11-24T08:30:08.150Z,96779.66
2022-11-24T08:32:53.856Z,96772.13
2022-11-24T08:35:39.691Z,96789.31
2022-11-24T08:38:24.953Z,96779.97
2022-11-24T08:41:14.915Z,96787.66
2022-11-24T08:44:00.381Z,96788.81
2022-11-24T08:46:46.592Z,96790.00
2022-11-24T08:49:32.232Z,96785.09
2022-11-24T08:52:17.626Z,96788.66
2022-11-24T08:55:03.240Z,96794.09
2022-11-24T08:57:48.708Z,96785.31
2022-11-24T09:00:34.205Z,96786.25
2022-11-24T09:03:19.575Z,96785.34
2022-11-24T09:06:06.218Z,96798.69
2022-11-24T09:08:53.888Z,96787.09
2022-11-24T09:11:39.278Z,96792.97
2022-11-24T09:14:24.728Z,96801.25
2022-11-24T09:17:10.224Z,96791.28
2022-11-24T09:19:55.595Z,96796.78
2022-11-24T09:22:43.343Z,96794.38
2022-11-24T09:25:28.455Z,96800.78
2022-11-24T09:28:14.154Z,96807.69
2022-11-24T09:31:04.633Z,96810.78
2022-11-24T09:33:50.372Z,96801.97
2022-11-24T09:36:36.767Z,96792.22
2022-11-24T09:39:22.248Z,96793.84
2022-11-24T09:42:14.780Z,96794.19
2022-11-24T09:45:09.325Z,96796.41
2022-11-24T09:48:09.702Z,96788.81
2022-11-24T09:50:59.969Z,96787.59
2022-11-24T09:53:56.863Z,96793.00
2022-11-24T09:56:43.291Z,96796.19
2022-11-24T09:59:28.845Z,96797.38
2022-11-24T10:02:14.258Z,96806.44
2022-11-24T10:04:59.770Z,96801.53
2022-11-24T10:08:06.824Z,96803.38
2022-11-24T10:10:59.560Z,96809.22
2022-11-24T10:14:00.159Z,96821.75
2022-11-24T10:16:57.180Z,96818.00
2022-11-24T10:20:13.244Z,96818.78
2022-11-24T10:23:39.763Z,96815.50
2022-11-24T10:26:36.363Z,96799.19
2022-11-24T10:29:30.968Z,96816.63
2022-11-24T10:32:25.113Z,96817.22
2022-11-24T10:35:17.453Z,96820.00
2022-11-24T10:38:51.069Z,96817.22
2022-11-24T10:41:50.588Z,96819.66
2022-11-24T10:44:35.893Z,96820.47
2022-11-24T10:47:22.992Z,96815.41
2022-11-24T10:50:17.779Z,96816.78
2022-11-24T10:53:25.803Z,96822.44
2022-11-24T10:56:11.024Z,96816.81
2022-11-24T10:58:56.400Z,96827.50
2022-11-24T11:01:41.740Z,96830.38
2022-11-24T11:04:27.222Z,96825.09
2022-11-24T11:07:21.011Z,96830.59
2022-11-24T11:10:25.280Z,96821.28
2022-11-24T11:13:30.968Z,96827.84
2022-11-24T11:16:24.592Z,96835.75
2022-11-24T11:19:56.881Z,96841.41
2022-11-24T11:22:44.285Z,96834.97
2022-11-24T11:25:34.414Z,96832.47
2022-11-24T11:28:31.528Z,96827.53
2022-11-24T11:31:22.424Z,96826.47
2022-11-24T11:34:26.755Z,96831.31
2022-11-24T11:37:16.015Z,96827.88
2022-11-24T11:40:02.220Z,96833.16
2022-11-24T11:43:26.863Z,96837.63
2022-11-24T11:46:16.106Z,96845.78
2022-11-24T11:49:01.762Z,96833.50
2022-11-24T11:51:54.182Z,96843.03
2022-11-24T11:55:16.888Z,96845.53
2022-11-24T11:58:11.678Z,96836.03
2022-11-24T12:01:12.987Z,96840.41
2022-11-24T12:04:13.910Z,96839.13
2022-11-24T12:07:11.931Z,96840.75
2022-11-24T12:10:33.517Z,96848.88
2022-11-24T12:13:36.985Z,96846.25
2022-11-24T12:17:01.249Z,96838.44
2022-11-24T12:20:25.172Z,96849.78
2022-11-24T12:23:11.407Z,96841.31
2022-11-24T12:26:24.245Z,96844.97
2022-11-24T12:29:34.520Z,96853.22
2022-11-24T12:33:00.385Z,96856.31
2022-11-24T12:35:52.173Z,96858.47
2022-11-24T12:38:47.064Z,96862.84
2022-11-24T12:41:50.589Z,96856.84
2022-11-24T12:45:02.040Z,96858.16
2022-11-24T12:48:18.349Z,96855.75
2022-11-24T12:51:06.506Z,96852.88
2022-11-24T12:53:53.391Z,96854.06
2022-11-24T12:56:52.558Z,96856.59
2022-11-24T12:59:54.001Z,96856.38
2022-11-24T13:02:39.667Z,96860.19
2022-11-24T13:05:35.917Z,96854.44
2022-11-24T13:08:22.168Z,96864.56
2022-11-24T13:11:41.713Z,96860.91
2022-11-24T13:14:37.778Z,96865.84
2022-11-24T13:17:56.670Z,96859.72
2022-11-24T13:20:40.433Z,96866.72
2022-11-24T13:23:27.909Z,96872.69
2022-11-24T13:26:27.551Z,96868.84
2022-11-24T13:29:31.166Z,96872.19
2022-11-24T13:32:19.791Z,96876.94
2022-11-24T13:35:16.277Z,96867.88
2022-11-24T13:38:01.488Z,96874.63
2022-11-24T13:41:06.211Z,96869.44
2022-11-24T13:44:14.821Z,96880.66
2022-11-24T13:47:06.392Z,96879.13
2022-11-24T13:49:52.060Z,96881.25
2022-11-24T13:52:40.735Z,96885.19
2022-11-24T13:55:30.231Z,96888.16
2022-11-24T13:58:24.698Z,96890.66
2022-11-24T14:01:32.002Z,96895.34
2022-11-24T14:04:36.271Z,96899.22
2022-11-24T14:07:22.771Z,96903.09
2022-11-24T14:10:18.542Z,96911.44
2022-11-24T14:13:36.195Z,96913.47
2022-11-24T14:16:23.860Z,96917.16
2022-11-24T14:19:11.243Z,96922.84
2022-11-24T14:21:57.006Z,96923.44
2022-11-24T14:24:45.511Z,96928.13
2022-11-24T14:27:35.835Z,96924.88
2022-11-24T14:30:24.121Z,96939.13
2022-11-24T14:33:12.315Z,96932.22
2022-11-24T14:35:57.922Z,96934.03
2022-11-24T14:38:44.487Z,96936.66
2022-11-24T14:41:30.943Z,96944.00
2022-11-24T14:44:29.887Z,96942.16
2022-11-24T14:47:30.183Z,96945.81
2022-11-24T14:50:19.705Z,96943.63
2022-11-24T14:53:14.352Z,96951.34
2022-11-24T14:56:11.227Z,96953.63
2022-11-24T14:58:57.978Z,96953.84
2022-11-24T15:01:43.763Z,96952.44
2022-11-24T15:05:00.823Z,96971.91
2022-11-24T15:07:41.105Z,96971.34
2022-11-24T15:10:36.553Z,96974.38
2022-11-24T15:13:24.493Z,96979.06
2022-11-24T15:16:19.540Z,96975.84
2022-11-24T15:19:06.804Z,96979.72
2022-11-24T15:21:52.662Z,96984.38
2022-11-24T15:24:49.830Z,96981.97
2022-11-24T15:27:35.234Z,96990.66
2022-11-24T15:30:21.176Z,96993.75
2022-11-24T15:33:14.936Z,96999.44
2022-11-24T15:36:00.942Z,97004.28
2022-11-24T15:38:46.461Z,96999.03
2022-11-24T15:41:33.025Z,97010.34
2022-11-24T15:44:18.403Z,97012.78
2022-11-24T15:47:03.763Z,97017.25
2022-11-24T15:49:48.917Z,97008.50
2022-11-24T15:52:34.439Z,97018.03
2022-11-24T15:55:22.042Z,97019.66
2022-11-24T15:58:11.497Z,97030.19
2022-11-24T16:00:57.079Z,97024.53
2022-11-24T16:03:47.819Z,97039.13
2022-11-24T16:06:34.024Z,97035.47
2022-11-24T16:09:19.909Z,97038.31
2022-11-24T16:12:06.668Z,97036.69
2022-11-24T16:14:52.128Z,97040.97
2022-11-24T16:17:37.652Z,97042.19
2022-11-24T16:20:23.553Z,97047.47
2022-11-24T16:23:09.278Z,97052.72
2022-11-24T16:25:55.054Z,97052.91
2022-11-24T16:28:40.817Z,97060.03
2022-11-24T16:31:26.134Z,97062.66
2022-11-24T16:34:11.878Z,97069.16
2022-11-24T16:36:57.443Z,97071.81
2022-11-24T16:39:49.646Z,97073.03
2022-11-24T16:42:35.795Z,97071.19
2022-11-24T16:45:21.086Z,97075.66
2022-11-24T16:48:06.723Z,97076.69
2022-11-24T16:50:52.141Z,97081.50
2022-11-24T16:53:38.316Z,97084.16
2022-11-24T16:56:23.568Z,97088.63
2022-11-24T16:59:09.259Z,97092.06
2022-11-24T17:01:54.573Z,97084.16
2022-11-24T17:04:40.325Z,97088.63
2022-11-24T17:07:26.417Z,97090.06
2022-11-24T17:10:12.054Z,97089.47
2022-11-24T17:12:57.350Z,97093.31
2022-11-24T17:15:48.437Z,97090.91
2022-11-24T17:18:36.767Z,97093.16
2022-11-24T17:21:25.240Z,97093.56
2022-11-24T17:24:15.583Z,97101.63
2022-11-24T17:27:03.463Z,97089.91
2022-11-24T17:29:48.873Z,97095.81
2022-11-24T17:32:34.595Z,97103.31
2022-11-24T17:35:20.031Z,97103.31
2022-11-24T17:38:05.806Z,97099.50
2022-11-24T17:40:51.339Z,97107.00
2022-11-24T17:43:36.915Z,97109.00
2022-11-24T17:46:24.040Z,97112.06
2022-11-24T17:49:13.185Z,97113.88
2022-11-24T17:51:58.912Z,97115.50
2022-11-24T17:54:46.752Z,97112.88
2022-11-24T17:57:32.713Z,97115.09
2022-11-24T18:00:18.687Z,97122.00
2022-11-24T18:03:05.574Z,97122.00
2022-11-24T18:05:51.335Z,97127.25
2022-11-24T18:08:38.573Z,97126.22
2022-11-24T18:11:31.799Z,97124.41
2022-11-24T18:14:17.519Z,97125.22
2022-11-24T18:17:02.777Z,97129.88
2022-11-24T18:19:48.241Z,97135.16
2022-11-24T18:23:04.042Z,97133.72
2022-11-24T18:25:39.680Z,97126.84
2022-11-24T18:28:25.750Z,97132.72
2022-11-24T18:31:16.482Z,97138.78
2022-11-24T18:34:03.097Z,97136.34
2022-11-24T18:36:52.181Z,97149.13
2022-11-24T18:39:42.065Z,97152.34
2022-11-24T18:42:28.659Z,97154.78
2022-11-24T18:45:14.206Z,97144.25
2022-11-24T18:47:59.613Z,97155.56
2022-11-24T18:50:52.928Z,97158.22
2022-11-24T18:53:38.557Z,97159.03
2022-11-24T18:56:24.670Z,97155.78
2022-11-24T18:59:10.827Z,97154.16
2022-11-24T19:01:58.131Z,97159.44
2022-11-24T19:04:44.322Z,97157.63
2022-11-24T19:07:29.779Z,97155.00
2022-11-24T19:10:16.189Z,97163.69
2022-11-24T19:13:01.550Z,97163.69
2022-11-24T19:15:48.629Z,97160.25
2022-11-24T19:18:34.126Z,97162.06
2022-11-24T19:21:20.179Z,97158.44
2022-11-24T19:24:07.581Z,97160.03
2022-11-24T19:26:54.390Z,97164.31
2022-11-24T19:29:43.015Z,97172.19
2022-11-24T19:32:31.348Z,97170.97
2022-11-24T19:35:16.791Z,97170.16
2022-11-24T19:38:02.624Z,97182.31
2022-11-24T19:40:48.187Z,97182.31
2022-11-24T19:43:34.182Z,97182.31
2022-11-24T19:46:20.064Z,97175.63
2022-11-24T19:49:08.344Z,97176.84
2022-11-24T19:51:53.543Z,97174.66
2022-11-24T19:54:39.478Z,97173.41
2022-11-24T19:57:24.926Z,97171.00
2022-11-24T20:00:10.970Z,97173.84
2022-11-24T20:02:56.173Z,97178.09
2022-11-24T20:05:41.622Z,97185.38
2022-11-24T20:08:35.417Z,97192.47
2022-11-24T20:11:22.113Z,97194.06
2022-11-24T20:14:08.169Z,97194.88
2022-11-24T20:16:53.806Z,97194.47
2022-11-24T20:19:39.303Z,97198.13
2022-11-24T20:22:24.821Z,97201.56
2022-11-24T20:25:11.472Z,97198.72
2022-11-24T20:27:57.521Z,97208.66
2022-11-24T20:30:45.038Z,97207.81
2022-11-24T20:33:30.918Z,97213.91
2022-11-24T20:36:19.814Z,97220.78
2022-11-24T20:39:09.077Z,97217.13
2022-11-24T20:41:55.884Z,97217.13
2022-11-24T20:44:41.268Z,97224.03
2022-11-24T20:47:27.010Z,97230.28
2022-11-24T20:50:12.565Z,97237.59
2022-11-24T20:52:58.026Z,97236.97
2022-11-24T20:55:43.686Z,97237.19
2022-11-24T20:58:29.017Z,97240.19
2022-11-24T21:01:20.294Z,97233.31
2022-11-24T21:04:08.974Z,97249.28
2022-11-24T21:06:54.828Z,97244.25
2022-11-24T21:09:40.391Z,97248.50
2022-11-24T21:12:25.793Z,97247.47
2022-11-24T21:15:11.192Z,97245.44
2022-11-24T21:17:56.706Z,97256.81
2022-11-24T21:20:42.109Z,97251.53
2022-11-24T21:23:28.263Z,97244.66
2022-11-24T21:26:17.189Z,97249.91
2022-11-24T21:29:03.645Z,97254.97
2022-11-24T21:31:49.243Z,97251.13
2022-11-24T21:34:35.220Z,97256.59
2022-11-24T21:37:21.022Z,97247.06
2022-11-24T21:40:07.340Z,97244.66
2022-11-24T21:42:52.938Z,97252.53
2022-11-24T21:45:38.285Z,97252.53
2022-11-24T21:48:23.809Z,97255.34
2022-11-24T21:51:13.044Z,97255.56
2022-11-24T21:53:58.559Z,97254.56
2022-11-24T21:56:44.248Z,97266.91
2022-11-24T21:59:29.676Z,97262.84
2022-11-24T22:02:15.055Z,97263.84
2022-11-24T22:05:00.461Z,97263.25
2022-11-24T22:07:46.029Z,97261.59
2022-11-24T22:10:31.421Z,97265.25
2022-11-24T22:13:16.773Z,97258.19
2022-11-24T22:16:17.852Z,97263.03
2022-11-24T22:19:03.702Z,97268.28
2022-11-24T22:21:49.065Z,97268.66
2022-11-24T22:24:34.909Z,97269.88
2022-11-24T22:27:20.699Z,97270.88
2022-11-24T22:30:07.139Z,97265.63
2022-11-24T22:32:53.787Z,97259.56
2022-11-24T22:35:39.386Z,97264.63
2022-11-24T22:38:26.094Z,97266.88
2022-11-24T22:41:17.423Z,97268.28
2022-11-24T22:44:03.927Z,97273.13
2022-11-24T22:46:49.480Z,97273.97
2022-11-24T22:49:35.131Z,97281.03
2022-11-24T22:52:20.799Z,97286.28
2022-11-24T22:55:06.568Z,97277.81
2022-11-24T22:57:56.822Z,97282.63
2022-11-24T23:00:42.331Z,97283.03
2022-11-24T23:03:27.700Z,97287.84
2022-11-24T23:06:15.472Z,97284.00
2022-11-24T23:09:03.772Z,97290.06
2022-11-24T23:11:49.626Z,97285.59
2022-11-24T23:14:35.525Z,97287.56
2022-11-24T23:17:21.353Z,97283.88
2022-11-24T23:20:07.489Z,97281.03
2022-11-24T23:22:55.352Z,97273.09
2022-11-24T23:25:40.780Z,97267.41
2022-11-24T23:28:26.519Z,97265.34
2022-11-24T23:31:17.708Z,97269.38
2022-11-24T23:34:04.388Z,97275.41
2022-11-24T23:36:50.002Z,97271.94
2022-11-24T23:39:35.423Z,97274.16
2022-11-24T23:42:21.555Z,97271.53
2022-11-24T23:45:08.828Z,97270.91
2022-11-24T23:47:54.428Z,97269.66
2022-11-24T23:50:39.868Z,97272.69
2022-11-24T23:53:25.497Z,97270.44
2022-11-24T23:56:17.474Z,97265.19
2022-11-24T23:59:04.850Z,97269.22
